Airfield :
LOGIN :

Register | Disclaimer

   EN    FR    IT 

 










Legend :    VFR   Marginal VFR   IFR   Intensive IFR   Very Intensive IFR
Visi :
Ceiling :
>= 8 km
>= 3000ft
5 to 8 km
1000 to 3000 ft
1500m to 5 km
500 to 1000 ft
800 to 1500m
200 to 500 ft
< 800m
< 200 ft
Symbols :   Thunderstorms  Fog  Heavy snow  Heavy precipitations  Wind > 20 kt
SIGMETs :     Misc.  Thunderstorms  Icing  Turbulence  Mountain Waves  Volcanic Ashes






- Airport Elevation : 1411 ft
- IATA code : SZG


LOWS - Salzburg

CURRENT METAR :
  • 300250Z AUTO 26002KT 9999 FEW000 BKN080 05/05 Q1021

EXPIRED METARs :
  • 300220Z AUTO VRB01KT 9999 FEW000 BKN080 05/05 Q1022
  • 300150Z AUTO VRB02KT 9999 FEW070 05/05 Q1022
  • 300120Z AUTO 23002KT 9999 FEW080 06/06 Q1022
  • 300050Z AUTO 23002KT 9999 FEW070 06/06 Q1022

TAF AMD TAF LOWS
Valid from the 30 at 00:00 until the 31 at 00:00 UTC


300021Z 3000/3024 15005KT 9999 FEW040 BKN070 TX14/3012Z TN06/3003Z
TEMPO 3000/3006 VRB01KT 1200 BCFG
BECMG 3008/3010 02006KT
TEMPO 3012/3018 04012KT -SHRA BKN050
BECMG 3018/3020 15005KT



MET'MAP, your aeronautical weather chart ! - Copyright ORBIFLY December 2007 - Disclaimer

ORBIFLY MET'MAP TEAM :

Programming & Development : Alexandra Zaïnal
Concept & original design : Baudouin d'Aumeries
Assistance for programming : Marc-Olivier Méhu
Technical & hardware support : Manuel Goepfert

Contact : metmap@orbifly.com




SOURCES & CREDITS :

   NOAA